createdAt,value
2022-09-06T00:00:55.561Z,24.09
2022-09-06T00:01:59.958Z,24.08
2022-09-06T00:03:04.347Z,24.08
2022-09-06T00:04:13.147Z,24.08
2022-09-06T00:05:19.489Z,24.07
2022-09-06T00:06:23.836Z,24.07
2022-09-06T00:07:28.180Z,24.08
2022-09-06T00:08:32.563Z,24.07
2022-09-06T00:09:36.960Z,24.07
2022-09-06T00:10:41.584Z,24.08
2022-09-06T00:11:45.945Z,24.07
2022-09-06T00:12:50.324Z,24.08
2022-09-06T00:13:54.700Z,24.07
2022-09-06T00:14:59.055Z,24.07
2022-09-06T00:16:03.602Z,24.08
2022-09-06T00:17:08.150Z,24.07
2022-09-06T00:18:12.548Z,24.07
2022-09-06T00:19:16.916Z,24.07
2022-09-06T00:20:21.322Z,24.06
2022-09-06T00:21:25.676Z,24.07
2022-09-06T00:22:30.035Z,24.07
2022-09-06T00:23:34.406Z,24.08
2022-09-06T00:24:38.772Z,24.07
2022-09-06T00:25:43.125Z,24.07
2022-09-06T00:26:47.527Z,24.07
2022-09-06T00:27:51.912Z,24.08
2022-09-06T00:28:56.270Z,24.07
2022-09-06T00:30:00.662Z,24.06
2022-09-06T00:31:05.062Z,24.05
2022-09-06T00:32:09.594Z,24.05
2022-09-06T00:33:14.085Z,24.04
2022-09-06T00:34:18.492Z,24.04
2022-09-06T00:35:22.834Z,24.03
2022-09-06T00:36:27.193Z,24.04
2022-09-06T00:37:31.525Z,24.03
2022-09-06T00:38:35.873Z,24.02
2022-09-06T00:39:40.316Z,24.02
2022-09-06T00:40:44.894Z,24.02
2022-09-06T00:41:49.229Z,24.01
2022-09-06T00:42:53.557Z,24.01
2022-09-06T00:43:57.896Z,24.01
2022-09-06T00:45:02.292Z,24.01
2022-09-06T00:46:06.690Z,24
2022-09-06T00:47:11.257Z,23.98
2022-09-06T00:48:15.632Z,23.97
2022-09-06T00:49:20.014Z,23.97
2022-09-06T00:50:24.355Z,23.97
2022-09-06T00:51:28.713Z,23.96
2022-09-06T00:52:33.078Z,23.96
2022-09-06T00:53:37.453Z,23.98
2022-09-06T00:54:41.798Z,23.97
2022-09-06T00:55:46.138Z,23.99
2022-09-06T00:56:50.489Z,23.99
2022-09-06T00:57:54.828Z,23.98
2022-09-06T00:58:59.221Z,23.95
2022-09-06T01:00:03.610Z,23.95
2022-09-06T01:01:08.006Z,23.96
2022-09-06T01:02:13.014Z,23.96
2022-09-06T01:03:17.891Z,23.97
2022-09-06T01:04:22.238Z,23.98
2022-09-06T01:05:26.617Z,23.96
2022-09-06T01:06:31.018Z,23.96
2022-09-06T01:07:35.376Z,23.96
2022-09-06T01:08:39.757Z,23.95
2022-09-06T01:09:44.180Z,23.94
2022-09-06T01:10:48.564Z,23.95
2022-09-06T01:11:52.958Z,23.94
2022-09-06T01:12:57.327Z,23.95
2022-09-06T01:14:01.687Z,23.94
2022-09-06T01:15:06.099Z,23.94
2022-09-06T01:16:10.561Z,23.94
2022-09-06T01:17:15.143Z,23.93
2022-09-06T01:18:19.546Z,23.93
2022-09-06T01:19:24.037Z,23.91
2022-09-06T01:20:28.379Z,23.92
2022-09-06T01:21:32.708Z,23.91
2022-09-06T01:22:39.273Z,23.92
2022-09-06T01:23:43.626Z,23.91
2022-09-06T01:24:48.138Z,23.91
2022-09-06T01:25:52.550Z,23.91
2022-09-06T01:26:56.938Z,23.9
2022-09-06T01:28:01.276Z,23.91
2022-09-06T01:29:05.626Z,23.9
2022-09-06T01:30:09.987Z,23.89
2022-09-06T01:31:14.470Z,23.89
2022-09-06T01:32:19.035Z,23.89
2022-09-06T01:33:23.364Z,23.88
2022-09-06T01:34:27.730Z,23.88
2022-09-06T01:35:32.144Z,23.87
2022-09-06T01:36:42.568Z,23.87
2022-09-06T01:38:13.457Z,23.87
2022-09-06T01:39:17.817Z,23.86
2022-09-06T01:40:22.233Z,23.87
2022-09-06T01:41:26.617Z,23.86
2022-09-06T01:42:30.977Z,23.86
2022-09-06T01:43:38.264Z,23.86
2022-09-06T01:44:42.623Z,23.85
2022-09-06T01:45:47.026Z,23.84
2022-09-06T01:46:51.528Z,23.83
2022-09-06T01:47:55.857Z,23.84
2022-09-06T01:49:00.196Z,23.84
2022-09-06T01:50:04.542Z,23.83
2022-09-06T01:51:09.024Z,23.84
2022-09-06T01:52:13.368Z,23.84
2022-09-06T01:53:17.720Z,23.84
2022-09-06T01:54:22.122Z,23.84
2022-09-06T01:55:26.456Z,23.85
2022-09-06T01:56:30.844Z,23.85
2022-09-06T01:57:35.296Z,23.85
2022-09-06T01:58:39.788Z,23.84
2022-09-06T01:59:44.171Z,23.85
2022-09-06T02:00:48.519Z,23.85
2022-09-06T02:01:52.962Z,23.85
2022-09-06T02:02:57.598Z,23.85
2022-09-06T02:04:02.075Z,23.85
2022-09-06T02:05:06.415Z,23.84
2022-09-06T02:06:10.746Z,23.84
2022-09-06T02:07:15.179Z,23.84
2022-09-06T02:08:19.563Z,23.84
2022-09-06T02:09:24.005Z,23.83
2022-09-06T02:10:28.363Z,23.84
2022-09-06T02:11:32.724Z,23.83
2022-09-06T02:12:37.132Z,23.83
2022-09-06T02:13:41.491Z,23.82
2022-09-06T02:14:45.837Z,23.82
2022-09-06T02:15:50.231Z,23.81
2022-09-06T02:16:54.612Z,23.81
2022-09-06T02:17:59.154Z,23.8
2022-09-06T02:19:03.492Z,23.79
2022-09-06T02:20:07.850Z,23.79
2022-09-06T02:21:12.179Z,23.79
2022-09-06T02:22:16.521Z,23.79
2022-09-06T02:23:20.925Z,23.79
2022-09-06T02:24:25.285Z,23.78
2022-09-06T02:25:29.643Z,23.77
2022-09-06T02:26:34.026Z,23.75
2022-09-06T02:27:38.376Z,23.74
2022-09-06T02:28:42.732Z,23.73
2022-09-06T02:29:47.091Z,23.71
2022-09-06T02:30:51.563Z,23.7
2022-09-06T02:31:56.072Z,23.69
2022-09-06T02:33:00.389Z,23.68
2022-09-06T02:34:04.825Z,23.67
2022-09-06T02:35:09.208Z,23.66
2022-09-06T02:36:13.532Z,23.66
2022-09-06T02:37:17.894Z,23.65
2022-09-06T02:38:22.233Z,23.64
2022-09-06T02:39:26.700Z,23.64
2022-09-06T02:40:31.231Z,23.63
2022-09-06T02:41:35.588Z,23.63
2022-09-06T02:42:39.950Z,23.63
2022-09-06T02:43:44.316Z,23.62
2022-09-06T02:44:48.648Z,23.62
2022-09-06T02:45:53.338Z,23.61
2022-09-06T02:46:57.872Z,23.61
2022-09-06T02:48:02.215Z,23.6
2022-09-06T02:49:06.570Z,23.59
2022-09-06T02:50:10.946Z,23.59
2022-09-06T02:51:15.358Z,23.58
2022-09-06T02:52:19.754Z,23.58
2022-09-06T02:53:24.059Z,23.58
2022-09-06T02:54:28.400Z,23.58
2022-09-06T02:55:32.718Z,23.58
2022-09-06T02:56:37.131Z,23.58
2022-09-06T02:57:41.491Z,23.58
2022-09-06T02:58:45.881Z,23.57
2022-09-06T02:59:50.229Z,23.57
2022-09-06T03:00:54.681Z,23.57
2022-09-06T03:01:59.266Z,23.56
2022-09-06T03:03:03.867Z,23.56
2022-09-06T03:04:08.257Z,23.56
2022-09-06T03:05:12.631Z,23.56
2022-09-06T03:06:16.973Z,23.57
2022-09-06T03:07:21.346Z,23.56
2022-09-06T03:08:25.769Z,23.57
2022-09-06T03:09:30.597Z,23.56
2022-09-06T03:10:34.953Z,23.56
2022-09-06T03:11:39.347Z,23.57
2022-09-06T03:12:43.724Z,23.56
2022-09-06T03:13:48.059Z,23.56
2022-09-06T03:14:54.934Z,23.57
2022-09-06T03:15:59.463Z,23.57
2022-09-06T03:17:03.955Z,23.58
2022-09-06T03:18:08.566Z,23.58
2022-09-06T03:19:12.919Z,23.57
2022-09-06T03:20:17.293Z,23.57
2022-09-06T03:21:21.704Z,23.57
2022-09-06T03:22:26.073Z,23.57
2022-09-06T03:23:30.421Z,23.56
2022-09-06T03:24:34.830Z,23.56
2022-09-06T03:25:39.235Z,23.55
2022-09-06T03:26:43.580Z,23.56
2022-09-06T03:27:47.935Z,23.57
2022-09-06T03:28:52.268Z,23.56
2022-09-06T03:29:56.663Z,23.56
2022-09-06T03:31:01.114Z,23.56
2022-09-06T03:32:06.793Z,23.57
2022-09-06T03:33:11.147Z,23.56
2022-09-06T03:34:15.512Z,23.56
2022-09-06T03:35:19.902Z,23.56
2022-09-06T03:36:24.271Z,23.56
2022-09-06T03:37:28.670Z,23.56
2022-09-06T03:38:33.006Z,23.56
2022-09-06T03:39:37.424Z,23.57
2022-09-06T03:40:41.991Z,23.57
2022-09-06T03:41:46.325Z,23.56
2022-09-06T03:42:50.684Z,23.57
2022-09-06T03:43:55.033Z,23.56
2022-09-06T03:44:59.398Z,23.56
2022-09-06T03:46:03.806Z,23.57
2022-09-06T03:47:08.367Z,23.58
2022-09-06T03:48:12.705Z,23.6
2022-09-06T03:49:17.027Z,23.62
2022-09-06T03:50:21.388Z,23.63
2022-09-06T03:51:25.798Z,23.64
2022-09-06T03:52:30.208Z,23.66
2022-09-06T03:53:34.610Z,23.64
2022-09-06T03:54:38.963Z,23.63
2022-09-06T03:55:43.339Z,23.62
2022-09-06T03:56:47.784Z,23.6
2022-09-06T03:57:52.157Z,23.6
2022-09-06T03:58:56.538Z,23.58
2022-09-06T04:00:00.865Z,23.58
2022-09-06T04:01:05.435Z,23.58
2022-09-06T04:02:10.346Z,23.57
2022-09-06T04:03:14.939Z,23.57
2022-09-06T04:04:19.337Z,23.58
2022-09-06T04:05:23.696Z,23.6
2022-09-06T04:06:28.048Z,23.64
2022-09-06T04:07:32.421Z,23.67
2022-09-06T04:08:36.815Z,23.63
2022-09-06T04:09:41.178Z,23.54
2022-09-06T04:10:45.579Z,23.48
2022-09-06T04:11:49.909Z,23.4
2022-09-06T04:12:54.298Z,23.43
2022-09-06T04:13:58.645Z,23.48
2022-09-06T04:15:03.040Z,23.51
2022-09-06T04:16:07.481Z,23.54
2022-09-06T04:17:12.281Z,23.47
2022-09-06T04:18:16.628Z,23.43
2022-09-06T04:19:21.007Z,23.37
2022-09-06T04:20:25.384Z,23.35
2022-09-06T04:21:29.802Z,23.35
2022-09-06T04:22:34.155Z,23.31
2022-09-06T04:23:39.996Z,23.29
2022-09-06T04:24:44.512Z,23.27
2022-09-06T04:25:48.882Z,23.26
2022-09-06T04:26:53.297Z,23.25
2022-09-06T04:27:57.681Z,23.25
2022-09-06T04:29:02.089Z,23.24
2022-09-06T04:30:06.446Z,23.24
2022-09-06T04:31:10.833Z,23.23
2022-09-06T04:32:15.227Z,23.21
2022-09-06T04:33:19.638Z,23.22
2022-09-06T04:34:24.020Z,23.21
2022-09-06T04:35:28.376Z,23.21
2022-09-06T04:36:32.767Z,23.21
2022-09-06T04:37:37.117Z,23.21
2022-09-06T04:38:41.462Z,23.2
2022-09-06T04:39:45.817Z,23.2
2022-09-06T04:40:50.267Z,23.19
2022-09-06T04:41:54.628Z,23.18
2022-09-06T04:42:58.992Z,23.17
2022-09-06T04:44:03.325Z,23.17
2022-09-06T04:45:07.674Z,23.17
2022-09-06T04:46:12.127Z,23.17
2022-09-06T04:47:16.699Z,23.18
2022-09-06T04:48:21.078Z,23.18
2022-09-06T04:49:25.634Z,23.17
2022-09-06T04:50:29.991Z,23.16
2022-09-06T04:51:34.406Z,23.15
2022-09-06T04:52:38.760Z,23.14
2022-09-06T04:53:43.128Z,23.14
2022-09-06T04:54:47.564Z,23.14
2022-09-06T04:55:51.944Z,23.14
2022-09-06T04:56:56.290Z,23.14
2022-09-06T04:58:00.633Z,23.13
2022-09-06T04:59:04.981Z,23.14
2022-09-06T05:00:09.375Z,23.14
2022-09-06T05:01:13.821Z,23.14
2022-09-06T05:02:18.398Z,23.13
2022-09-06T05:03:23.070Z,23.14
2022-09-06T05:04:27.495Z,23.13
2022-09-06T05:05:31.841Z,23.13
2022-09-06T05:06:36.207Z,23.12
2022-09-06T05:07:40.548Z,23.12
2022-09-06T05:08:44.894Z,23.12
2022-09-06T05:09:49.319Z,23.13
2022-09-06T05:10:53.682Z,23.13
2022-09-06T05:11:58.072Z,23.13
2022-09-06T05:13:02.437Z,23.12
2022-09-06T05:14:06.811Z,23.12
2022-09-06T05:15:11.189Z,23.11
2022-09-06T05:16:15.616Z,23.11
2022-09-06T05:17:20.203Z,23.1
2022-09-06T05:18:24.558Z,23.11
2022-09-06T05:19:29.557Z,23.11
2022-09-06T05:20:33.891Z,23.1
2022-09-06T05:21:38.277Z,23.1
2022-09-06T05:22:44.855Z,23.1
2022-09-06T05:23:49.277Z,23.12
2022-09-06T05:24:57.794Z,23.11
2022-09-06T05:26:02.204Z,23.1
2022-09-06T05:27:06.633Z,23.11
2022-09-06T05:28:11.016Z,23.11
2022-09-06T05:29:15.441Z,23.1
2022-09-06T05:30:19.816Z,23.12
2022-09-06T05:31:24.200Z,23.11
2022-09-06T05:32:28.780Z,23.1
2022-09-06T05:33:33.124Z,23.11
2022-09-06T05:34:37.490Z,23.11
2022-09-06T05:35:41.834Z,23.11
2022-09-06T05:36:46.204Z,23.11
2022-09-06T05:37:50.639Z,23.1
2022-09-06T05:38:55.001Z,23.11
2022-09-06T05:39:59.371Z,23.1
2022-09-06T05:41:04.043Z,23.12
2022-09-06T05:42:08.392Z,23.08
2022-09-06T05:43:12.748Z,23.04
2022-09-06T05:44:17.096Z,23.04
2022-09-06T05:45:21.549Z,23.05
2022-09-06T05:46:26.192Z,23.06
2022-09-06T05:47:30.543Z,23.06
2022-09-06T05:48:37.108Z,23.05
2022-09-06T05:49:41.909Z,23.05
2022-09-06T05:50:46.258Z,23.06
2022-09-06T05:51:50.609Z,23.08
2022-09-06T05:52:55.006Z,23.08
2022-09-06T05:53:59.410Z,23.08
2022-09-06T05:55:03.782Z,23.05
2022-09-06T05:56:08.144Z,23.12
2022-09-06T05:57:12.552Z,23.18
2022-09-06T05:58:16.921Z,23.2
2022-09-06T05:59:22.313Z,23.19
2022-09-06T06:00:26.682Z,23.18
2022-09-06T06:01:31.271Z,23.18
2022-09-06T06:02:35.898Z,23.17
2022-09-06T06:03:40.546Z,23.17
2022-09-06T06:04:44.935Z,23.15
2022-09-06T06:05:49.266Z,23.15
2022-09-06T06:06:53.666Z,23.15
2022-09-06T06:07:58.074Z,23.14
2022-09-06T06:09:02.474Z,23.14
2022-09-06T06:10:06.826Z,23.12
2022-09-06T06:11:11.192Z,23.14
2022-09-06T06:12:15.551Z,23.15
2022-09-06T06:13:19.922Z,23.15
2022-09-06T06:14:24.335Z,23.17
2022-09-06T06:15:28.686Z,23.16
2022-09-06T06:16:33.160Z,23.15
2022-09-06T06:17:37.796Z,23.15
2022-09-06T06:18:42.173Z,23.16
2022-09-06T06:19:51.131Z,23.15
2022-09-06T06:20:55.492Z,23.16
2022-09-06T06:21:59.841Z,23.15
2022-09-06T06:23:04.274Z,23.17
2022-09-06T06:24:08.625Z,23.12
2022-09-06T06:25:13.048Z,23.13
2022-09-06T06:26:17.449Z,23.15
2022-09-06T06:27:21.807Z,23.18
2022-09-06T06:28:26.265Z,23.19
2022-09-06T06:29:31.139Z,23.2
2022-09-06T06:30:35.538Z,23.21
2022-09-06T06:31:40.012Z,23.22
2022-09-06T06:32:44.799Z,23.23
2022-09-06T06:33:49.175Z,23.24
2022-09-06T06:34:53.555Z,23.25
2022-09-06T06:35:57.891Z,23.25
2022-09-06T06:37:02.276Z,23.26
2022-09-06T06:38:06.712Z,23.27
2022-09-06T06:39:11.119Z,23.28
2022-09-06T06:40:15.500Z,23.28
2022-09-06T06:41:19.902Z,23.29
2022-09-06T06:42:24.253Z,23.3
2022-09-06T06:43:28.660Z,23.31
2022-09-06T06:44:33.078Z,23.31
2022-09-06T06:45:37.486Z,23.32
2022-09-06T06:46:42.166Z,23.32
2022-09-06T06:47:46.513Z,23.33
2022-09-06T06:48:54.632Z,23.32
2022-09-06T06:49:59.314Z,23.33
2022-09-06T06:51:03.695Z,23.34
2022-09-06T06:52:08.120Z,23.34
2022-09-06T06:53:12.518Z,23.34
2022-09-06T06:54:16.912Z,23.35
2022-09-06T06:55:21.276Z,23.35
2022-09-06T06:56:25.663Z,23.37
2022-09-06T06:57:30.071Z,23.36
2022-09-06T06:58:34.408Z,23.37
2022-09-06T06:59:38.783Z,23.38
2022-09-06T07:00:43.256Z,23.37
2022-09-06T07:01:47.953Z,23.38
2022-09-06T07:02:52.799Z,23.38
2022-09-06T07:03:57.133Z,23.39
2022-09-06T07:05:02.118Z,23.39
2022-09-06T07:08:46.409Z,23.4
2022-09-06T07:11:40.689Z,23.4
2022-09-06T07:12:45.069Z,23.41
2022-09-06T07:13:49.664Z,23.42
2022-09-06T07:14:54.039Z,23.41
2022-09-06T07:15:58.447Z,23.42
2022-09-06T07:17:06.127Z,23.42
2022-09-06T07:18:13.072Z,23.42
2022-09-06T07:21:37.393Z,23.43
2022-09-06T07:22:42.420Z,23.42
2022-09-06T07:25:21.707Z,23.44
2022-09-06T07:26:26.134Z,23.44
2022-09-06T07:28:52.703Z,23.44
2022-09-06T07:29:57.064Z,23.45
2022-09-06T07:31:01.472Z,23.45
2022-09-06T07:33:14.799Z,23.45
2022-09-06T07:34:19.157Z,23.45
2022-09-06T07:35:23.560Z,23.46
2022-09-06T07:36:27.941Z,23.46
2022-09-06T07:37:32.265Z,23.47
2022-09-06T07:38:36.637Z,23.46
2022-09-06T07:39:41.027Z,23.46
2022-09-06T07:40:45.499Z,23.47
2022-09-06T07:41:49.866Z,23.47
2022-09-06T07:42:54.283Z,23.48
2022-09-06T07:43:58.677Z,23.47
2022-09-06T07:45:03.054Z,23.47
2022-09-06T07:46:07.559Z,23.47
2022-09-06T07:49:02.190Z,23.49
2022-09-06T07:54:29.708Z,23.49
2022-09-06T07:55:34.949Z,23.49
2022-09-06T07:56:39.304Z,23.49
2022-09-06T07:57:43.668Z,23.49
2022-09-06T07:58:48.060Z,23.49
2022-09-06T07:59:52.396Z,23.5
2022-09-06T08:00:56.821Z,23.49
2022-09-06T08:02:01.363Z,23.5
2022-09-06T08:03:06.054Z,23.5
2022-09-06T08:04:10.449Z,23.5
2022-09-06T08:09:58.946Z,23.51
2022-09-06T08:11:03.312Z,23.51
2022-09-06T08:12:07.731Z,23.51
2022-09-06T08:13:12.081Z,23.51
2022-09-06T08:14:16.488Z,23.51
2022-09-06T08:15:20.864Z,23.52
2022-09-06T08:16:25.263Z,23.51
2022-09-06T08:17:29.846Z,23.51
2022-09-06T08:18:34.214Z,23.52
2022-09-06T08:19:38.599Z,23.52
2022-09-06T08:20:42.947Z,23.51
2022-09-06T08:21:47.314Z,23.52
2022-09-06T08:22:51.657Z,23.53
2022-09-06T08:23:56.010Z,23.53
2022-09-06T08:25:00.330Z,23.53
2022-09-06T08:26:04.756Z,23.54
2022-09-06T08:27:09.132Z,23.53
2022-09-06T08:28:13.527Z,23.53
2022-09-06T08:29:17.895Z,23.53
2022-09-06T08:30:22.333Z,23.54
2022-09-06T08:31:26.769Z,23.54
2022-09-06T08:32:31.332Z,23.55
2022-09-06T08:33:35.727Z,23.54
2022-09-06T08:34:40.054Z,23.54
2022-09-06T08:35:44.454Z,23.54
2022-09-06T08:36:48.866Z,23.54
2022-09-06T08:37:53.258Z,23.54
2022-09-06T08:38:57.594Z,23.55
2022-09-06T08:40:02.024Z,23.55
2022-09-06T08:41:06.722Z,23.55
2022-09-06T08:42:11.119Z,23.56
2022-09-06T08:43:15.425Z,23.55
2022-09-06T08:45:57.962Z,23.54
2022-09-06T08:47:02.431Z,23.55
2022-09-06T08:48:07.200Z,23.56
2022-09-06T08:49:11.572Z,23.56
2022-09-06T08:50:15.905Z,23.56
2022-09-06T08:51:20.396Z,23.56
2022-09-06T08:52:24.803Z,23.57
2022-09-06T08:53:29.424Z,23.56
2022-09-06T08:54:33.794Z,23.56
2022-09-06T08:55:38.133Z,23.56
2022-09-06T08:56:42.462Z,23.57
2022-09-06T08:57:46.895Z,23.57
2022-09-06T08:58:51.239Z,23.57
2022-09-06T08:59:55.570Z,23.57
2022-09-06T09:00:59.990Z,23.56
2022-09-06T09:02:04.701Z,23.57
2022-09-06T09:03:12.109Z,23.57
2022-09-06T09:04:20.500Z,23.57
2022-09-06T09:05:24.859Z,23.57
2022-09-06T09:06:29.240Z,23.58
2022-09-06T09:07:33.563Z,23.58
2022-09-06T09:08:37.926Z,23.58
2022-09-06T09:09:42.237Z,23.58
2022-09-06T09:10:46.631Z,23.58
2022-09-06T09:11:50.981Z,23.59
2022-09-06T09:12:55.304Z,23.59
2022-09-06T09:13:59.658Z,23.58
2022-09-06T09:15:04.103Z,23.59
2022-09-06T09:16:08.444Z,23.59
2022-09-06T09:17:13.002Z,23.59
2022-09-06T09:18:17.403Z,23.59
2022-09-06T09:19:21.759Z,23.6
2022-09-06T09:20:26.154Z,23.61
2022-09-06T09:21:31.100Z,23.61
2022-09-06T09:22:35.564Z,23.62
2022-09-06T09:23:39.975Z,23.61
2022-09-06T09:24:44.383Z,23.62
2022-09-06T09:25:48.756Z,23.62
2022-09-06T09:26:53.100Z,23.63
2022-09-06T09:27:57.514Z,23.63
2022-09-06T09:29:01.876Z,23.63
2022-09-06T09:31:56.265Z,23.62
2022-09-06T09:33:00.950Z,23.63
2022-09-06T09:34:05.339Z,23.63
2022-09-06T09:35:09.687Z,23.64
2022-09-06T09:36:14.058Z,23.63
2022-09-06T09:39:05.378Z,23.64
2022-09-06T09:40:09.821Z,23.64
2022-09-06T09:41:14.348Z,23.65
2022-09-06T09:42:19.630Z,23.64
2022-09-06T09:43:24.116Z,23.63
2022-09-06T09:44:28.463Z,23.63
2022-09-06T09:45:32.809Z,23.66
2022-09-06T09:46:37.219Z,23.67
2022-09-06T09:47:41.875Z,23.69
2022-09-06T09:48:46.270Z,23.69
2022-09-06T09:49:50.694Z,23.71
2022-09-06T09:50:55.115Z,23.7
2022-09-06T09:51:59.548Z,23.7
2022-09-06T09:53:04.044Z,23.69
2022-09-06T09:54:08.416Z,23.69
2022-09-06T09:55:12.862Z,23.68
2022-09-06T09:56:17.257Z,23.68
2022-09-06T09:57:21.627Z,23.68
2022-09-06T09:58:26.030Z,23.67
2022-09-06T09:59:30.558Z,23.67
2022-09-06T10:00:34.986Z,23.67
2022-09-06T10:01:39.546Z,23.67
2022-09-06T10:02:43.920Z,23.67
2022-09-06T10:05:54.979Z,23.68
2022-09-06T10:08:12.618Z,23.67
2022-09-06T10:09:19.069Z,23.65
2022-09-06T10:10:23.711Z,23.65
2022-09-06T10:11:28.079Z,23.67
2022-09-06T10:12:32.419Z,23.67
2022-09-06T10:13:36.778Z,23.67
2022-09-06T10:14:41.143Z,23.68
2022-09-06T10:15:45.596Z,23.68
2022-09-06T10:16:50.162Z,23.68
2022-09-06T10:17:54.509Z,23.69
2022-09-06T10:18:58.871Z,23.68
2022-09-06T10:20:03.209Z,23.68
2022-09-06T10:21:07.576Z,23.69
2022-09-06T10:22:11.941Z,23.68
2022-09-06T10:23:16.404Z,23.7
2022-09-06T10:25:25.585Z,23.69
2022-09-06T10:26:29.923Z,23.7
2022-09-06T10:27:34.811Z,23.71
2022-09-06T10:29:03.982Z,23.7
2022-09-06T10:30:08.416Z,23.7
2022-09-06T10:31:12.841Z,23.7
2022-09-06T10:32:17.444Z,23.71
2022-09-06T10:33:21.799Z,23.71
2022-09-06T10:34:28.778Z,23.7
2022-09-06T10:35:33.211Z,23.7
2022-09-06T10:36:37.577Z,23.71
2022-09-06T10:37:41.949Z,23.71
2022-09-06T10:38:46.326Z,23.71
2022-09-06T10:39:50.810Z,23.72
2022-09-06T10:40:55.457Z,23.72
2022-09-06T10:41:59.850Z,23.72
2022-09-06T10:43:04.214Z,23.71
2022-09-06T10:44:08.597Z,23.72
2022-09-06T10:45:12.977Z,23.72
2022-09-06T10:46:17.380Z,23.72
2022-09-06T10:47:22.016Z,23.72
2022-09-06T10:48:26.647Z,23.74
2022-09-06T10:49:31.821Z,23.73
2022-09-06T10:50:37.193Z,23.73
2022-09-06T10:51:41.607Z,23.73
2022-09-06T10:52:46.056Z,23.73
2022-09-06T10:53:50.392Z,23.75
2022-09-06T10:54:54.876Z,23.76
2022-09-06T10:56:01.438Z,23.76
2022-09-06T10:57:05.940Z,23.74
2022-09-06T10:58:18.040Z,23.75
2022-09-06T10:59:39.607Z,23.75
2022-09-06T11:00:44.367Z,23.76
2022-09-06T11:01:48.896Z,23.75
2022-09-06T11:06:40.076Z,23.76
2022-09-06T11:09:49.176Z,23.76
2022-09-06T11:10:53.539Z,23.76
2022-09-06T11:11:57.964Z,23.77
2022-09-06T11:13:02.432Z,23.77
2022-09-06T11:14:06.790Z,23.77
2022-09-06T11:15:11.146Z,23.77
2022-09-06T11:16:15.594Z,23.77
2022-09-06T11:17:20.325Z,23.77
2022-09-06T11:18:24.734Z,23.77
2022-09-06T11:19:29.197Z,23.78
2022-09-06T11:20:33.531Z,23.78
2022-09-06T11:21:37.860Z,23.78
2022-09-06T11:22:42.223Z,23.78
2022-09-06T11:23:46.636Z,23.78
2022-09-06T11:24:51.061Z,23.78
2022-09-06T11:25:55.408Z,23.78
2022-09-06T11:27:02.008Z,23.79
2022-09-06T11:28:06.419Z,23.79
2022-09-06T11:29:10.784Z,23.79
2022-09-06T11:30:15.130Z,23.79
2022-09-06T11:33:24.183Z,23.81
2022-09-06T11:34:28.889Z,23.81
2022-09-06T11:35:33.269Z,23.8
2022-09-06T11:36:37.635Z,23.81
2022-09-06T11:37:42.023Z,23.81
2022-09-06T11:38:46.431Z,23.81
2022-09-06T11:41:29.568Z,23.81
2022-09-06T11:42:34.014Z,23.81
2022-09-06T11:43:38.676Z,23.8
2022-09-06T11:44:43.200Z,23.8
2022-09-06T11:45:47.563Z,23.8
2022-09-06T11:46:51.951Z,23.81
2022-09-06T11:47:56.412Z,23.81
2022-09-06T11:49:03.836Z,23.81
2022-09-06T11:50:08.230Z,23.82
2022-09-06T11:51:12.865Z,23.81
2022-09-06T11:52:17.255Z,23.83
2022-09-06T11:53:21.624Z,23.84
2022-09-06T11:54:26.406Z,23.85
2022-09-06T11:55:30.782Z,23.86
2022-09-06T11:56:35.208Z,23.85
2022-09-06T11:57:39.598Z,23.85
2022-09-06T11:58:44.020Z,23.85
2022-09-06T11:59:48.439Z,23.86
2022-09-06T12:00:52.815Z,23.85
2022-09-06T12:01:57.171Z,23.86
2022-09-06T12:05:06.569Z,23.85
2022-09-06T12:06:11.062Z,23.84
2022-09-06T12:07:15.420Z,23.84
2022-09-06T12:08:19.819Z,23.85
2022-09-06T12:09:24.164Z,23.85
2022-09-06T12:10:28.524Z,23.86
2022-09-06T12:11:32.878Z,23.85
2022-09-06T12:12:37.250Z,23.86
2022-09-06T12:13:41.694Z,23.86
2022-09-06T12:14:46.071Z,23.85
2022-09-06T12:15:50.585Z,23.85
2022-09-06T12:16:55.095Z,23.84
2022-09-06T12:17:59.504Z,23.85
2022-09-06T12:19:03.917Z,23.85
2022-09-06T12:20:08.339Z,23.86
2022-09-06T12:21:12.666Z,23.86
2022-09-06T12:22:17.038Z,23.86
2022-09-06T12:23:21.391Z,23.86
2022-09-06T12:24:25.758Z,23.86
2022-09-06T12:25:30.129Z,23.86
2022-09-06T12:26:34.534Z,23.86
2022-09-06T12:27:38.989Z,23.87
2022-09-06T12:28:43.341Z,23.87
2022-09-06T12:29:47.708Z,23.86
2022-09-06T12:30:52.076Z,23.86
2022-09-06T12:31:56.587Z,23.87
2022-09-06T12:33:00.960Z,23.87
2022-09-06T12:34:05.347Z,23.88
2022-09-06T12:36:59.918Z,23.87
2022-09-06T12:38:04.246Z,23.87
2022-09-06T12:39:08.578Z,23.87
2022-09-06T12:40:13.032Z,23.86
2022-09-06T12:41:17.784Z,23.87
2022-09-06T12:42:22.201Z,23.86
2022-09-06T12:43:26.576Z,23.86
2022-09-06T12:44:30.909Z,23.85
2022-09-06T12:45:35.279Z,23.85
2022-09-06T12:46:39.883Z,23.87
2022-09-06T12:47:44.420Z,23.87
2022-09-06T12:48:48.763Z,23.88
2022-09-06T12:49:53.111Z,23.89
2022-09-06T12:50:57.466Z,23.88
2022-09-06T12:52:01.814Z,23.88
2022-09-06T12:53:06.202Z,23.88
2022-09-06T12:54:10.525Z,23.86
2022-09-06T12:55:14.876Z,23.86
2022-09-06T12:56:19.225Z,23.86
2022-09-06T12:57:23.663Z,23.86
2022-09-06T12:58:28.125Z,23.86
2022-09-06T12:59:32.745Z,23.87
2022-09-06T13:00:37.140Z,23.86
2022-09-06T13:01:41.619Z,23.86
2022-09-06T13:02:46.490Z,23.87
2022-09-06T13:03:51.435Z,23.86
2022-09-06T13:04:55.795Z,23.86
2022-09-06T13:06:00.171Z,23.86
2022-09-06T13:07:04.545Z,23.86
2022-09-06T13:08:08.897Z,23.86
2022-09-06T13:09:13.255Z,23.86
2022-09-06T13:10:17.620Z,23.87
2022-09-06T13:11:21.996Z,23.86
2022-09-06T13:12:26.468Z,23.85
2022-09-06T13:13:30.817Z,23.85
2022-09-06T13:14:35.216Z,23.85
2022-09-06T13:15:39.681Z,23.84
2022-09-06T13:16:44.171Z,23.84
2022-09-06T13:17:48.506Z,23.84
2022-09-06T13:18:52.849Z,23.84
2022-09-06T13:19:57.178Z,23.84
2022-09-06T13:21:01.586Z,23.83
2022-09-06T13:22:05.998Z,23.84
2022-09-06T13:23:10.333Z,23.83
2022-09-06T13:24:14.671Z,23.83
2022-09-06T13:25:20.789Z,23.83
2022-09-06T13:26:25.331Z,23.84
2022-09-06T13:27:29.995Z,23.83
2022-09-06T13:28:34.382Z,23.83
2022-09-06T13:29:38.803Z,23.82
2022-09-06T13:30:45.020Z,23.83
2022-09-06T13:31:53.508Z,23.82
2022-09-06T13:32:57.899Z,23.81
2022-09-06T13:34:02.250Z,23.81
2022-09-06T13:35:06.606Z,23.82
2022-09-06T13:36:10.999Z,23.81
2022-09-06T13:37:15.335Z,23.82
2022-09-06T13:38:19.713Z,23.82
2022-09-06T13:39:24.140Z,23.81
2022-09-06T13:40:28.587Z,23.81
2022-09-06T13:41:32.920Z,23.81
2022-09-06T13:42:37.285Z,23.81
2022-09-06T13:43:41.645Z,23.81
2022-09-06T13:44:46.055Z,23.82
2022-09-06T13:45:50.413Z,23.81
2022-09-06T13:46:54.914Z,23.81
2022-09-06T13:48:12.980Z,23.81
2022-09-06T13:49:42.749Z,23.82
2022-09-06T13:50:47.139Z,23.81
2022-09-06T13:51:51.509Z,23.81
2022-09-06T13:52:55.848Z,23.82
2022-09-06T13:54:00.195Z,23.82
2022-09-06T13:55:04.549Z,23.82
2022-09-06T13:56:09.116Z,23.82
2022-09-06T13:57:13.492Z,23.82
2022-09-06T13:58:18.086Z,23.83
2022-09-06T13:59:22.452Z,23.83
2022-09-06T14:00:26.858Z,23.84
2022-09-06T14:01:31.263Z,23.84
2022-09-06T14:02:35.952Z,23.84
2022-09-06T14:03:40.453Z,23.84
2022-09-06T14:04:44.787Z,23.85
2022-09-06T14:05:49.203Z,23.85
2022-09-06T14:06:53.546Z,23.85
2022-09-06T14:07:57.903Z,23.85
2022-09-06T14:09:07.156Z,23.86
2022-09-06T14:10:13.076Z,23.86
2022-09-06T14:11:17.424Z,23.86
2022-09-06T14:12:21.796Z,23.87
2022-09-06T14:13:26.160Z,23.87
2022-09-06T14:14:30.824Z,23.87
2022-09-06T14:15:35.318Z,23.88
2022-09-06T14:16:39.819Z,23.89
2022-09-06T14:17:44.178Z,23.89
2022-09-06T14:18:48.511Z,23.9
2022-09-06T14:19:52.868Z,23.91
2022-09-06T14:20:57.208Z,23.91
2022-09-06T14:22:01.561Z,23.91
2022-09-06T14:23:05.898Z,23.93
2022-09-06T14:24:10.310Z,23.93
2022-09-06T14:25:14.722Z,23.93
2022-09-06T14:26:19.065Z,23.95
2022-09-06T14:27:23.631Z,23.95
2022-09-06T14:28:28.171Z,23.96
2022-09-06T14:29:32.766Z,23.97
2022-09-06T14:30:37.228Z,23.98
2022-09-06T14:31:41.699Z,23.99
2022-09-06T14:32:46.098Z,23.99
2022-09-06T14:33:50.477Z,24
2022-09-06T14:34:54.842Z,24
2022-09-06T14:35:59.227Z,24.01
2022-09-06T14:37:03.606Z,24
2022-09-06T14:38:10.730Z,24
2022-09-06T14:39:15.119Z,24
2022-09-06T14:40:19.533Z,24